Anchor, Texas
Current Conditions -  °F | °C
As of 12:53 PM on Thursday 30 Oct 2014 (Local Time) from KLBX Reporting Station
Overcast Overcast  
Wind Chill: 24°   Ceiling: 2800
Heat Index: 24°   Visibility: 10mi
Dew Point: 17°   Wind: 3mph
Humidity: 66%   Direction: 50°NE
Pressure: 30.11"   Gusts: NA
Location:  29.1898°N, 95.4754°W
Report Text: KLBX 301753Z AUTO 05003KT 10SM OVC028 24/17 A3011 RMK AO2 SLP196 T02390172 10239 20172 58005
Loading
Personal Weather Stations






























Interactive Weather Map
Tropical Storm Tracking
New forecast layout! Learn more

10-Day Weather Forecast

Advertisements
Track Severe Weather on mobile